createdAt,value
2022-11-27T00:01:28.635Z,3.11
2022-11-27T00:04:17.679Z,3.12
2022-11-27T00:06:57.639Z,3.09
2022-11-27T00:09:51.615Z,3.08
2022-11-27T00:12:38.614Z,3.08
2022-11-27T00:15:40.784Z,3.10
2022-11-27T00:18:27.612Z,3.11
2022-11-27T00:21:00.691Z,3.12
2022-11-27T00:23:47.623Z,3.13
2022-11-27T00:26:31.899Z,3.15
2022-11-27T00:29:28.598Z,3.16
2022-11-27T00:32:22.613Z,3.17
2022-11-27T00:35:09.631Z,3.16
2022-11-27T00:37:49.628Z,3.17
2022-11-27T00:40:43.627Z,3.15
2022-11-27T00:43:43.998Z,3.13
2022-11-27T00:46:41.721Z,3.14
2022-11-27T00:49:28.620Z,3.14
2022-11-27T00:52:01.726Z,3.13
2022-11-27T00:54:48.635Z,3.12
2022-11-27T00:57:21.696Z,3.09
2022-11-27T01:00:08.641Z,3.07
2022-11-27T01:02:41.746Z,3.08
2022-11-27T01:05:28.652Z,3.07
2022-11-27T01:08:01.695Z,3.06
2022-11-27T01:10:56.626Z,3.04
2022-11-27T01:13:40.645Z,3.04
2022-11-27T01:16:42.069Z,3.06
2022-11-27T01:19:29.644Z,3.04
2022-11-27T01:22:02.708Z,3.03
2022-11-27T01:24:50.649Z,3.01
2022-11-27T01:27:23.725Z,3.02
2022-11-27T01:30:10.654Z,3.03
2022-11-27T01:32:50.662Z,3.04
2022-11-27T01:35:37.642Z,3.01
2022-11-27T01:38:10.771Z,2.99
2022-11-27T01:41:13.660Z,2.98
2022-11-27T01:43:48.875Z,2.98
2022-11-27T01:46:48.691Z,2.95
2022-11-27T01:49:27.729Z,2.94
2022-11-27T01:52:19.666Z,2.90
2022-11-27T01:55:17.657Z,2.90
2022-11-27T01:58:18.681Z,2.88
2022-11-27T02:01:06.640Z,2.85
2022-11-27T02:03:40.727Z,2.84
2022-11-27T02:06:27.674Z,2.81
2022-11-27T02:09:01.723Z,2.82
2022-11-27T02:11:57.679Z,2.81
2022-11-27T02:14:52.719Z,2.79
2022-11-27T02:17:58.673Z,2.78
2022-11-27T02:20:59.651Z,2.77
2022-11-27T02:24:27.691Z,2.76
2022-11-27T02:27:14.674Z,2.76
2022-11-27T02:29:51.809Z,2.73
2022-11-27T02:32:56.671Z,2.72
2022-11-27T02:35:36.728Z,2.70
2022-11-27T02:38:36.659Z,2.71
2022-11-27T02:41:25.650Z,2.67
2022-11-27T02:44:15.684Z,2.67
2022-11-27T02:46:56.756Z,2.64
2022-11-27T02:49:52.667Z,2.60
2022-11-27T02:52:39.683Z,2.60
2022-11-27T02:55:18.752Z,2.58
2022-11-27T02:58:14.699Z,2.55
2022-11-27T03:01:03.690Z,2.52
2022-11-27T03:03:42.712Z,2.50
2022-11-27T03:06:36.676Z,2.55
2022-11-27T03:09:15.775Z,2.53
2022-11-27T03:12:02.673Z,2.51
2022-11-27T03:14:35.818Z,2.52
2022-11-27T03:17:42.689Z,2.51
2022-11-27T03:20:27.747Z,2.53
2022-11-27T03:23:14.698Z,2.53
2022-11-27T03:25:47.761Z,2.52
2022-11-27T03:28:35.700Z,2.51
2022-11-27T03:31:15.785Z,2.48
2022-11-27T03:34:09.666Z,2.49
2022-11-27T03:36:56.706Z,2.51
2022-11-27T03:39:30.811Z,2.52
2022-11-27T03:42:26.714Z,2.51
2022-11-27T03:45:09.779Z,2.51
2022-11-27T03:48:08.696Z,2.51
2022-11-27T03:51:03.774Z,2.51
2022-11-27T03:53:53.703Z,2.50
2022-11-27T03:56:32.786Z,2.48
2022-11-27T03:59:55.695Z,2.50
2022-11-27T04:03:04.697Z,2.47
2022-11-27T04:05:51.708Z,2.44
2022-11-27T04:08:25.796Z,2.43
2022-11-27T04:11:12.718Z,2.43
2022-11-27T04:13:45.768Z,2.42
2022-11-27T04:16:32.756Z,2.40
2022-11-27T04:19:05.782Z,2.40
2022-11-27T04:21:52.730Z,2.38
2022-11-27T04:24:25.780Z,2.38
2022-11-27T04:27:12.728Z,2.37
2022-11-27T04:29:52.732Z,2.39
2022-11-27T04:32:46.715Z,2.38
2022-11-27T04:35:33.720Z,2.33
2022-11-27T04:38:06.784Z,2.33
2022-11-27T04:40:53.726Z,2.33
2022-11-27T04:43:26.802Z,2.27
2022-11-27T04:46:13.753Z,2.26
2022-11-27T04:48:46.786Z,2.26
2022-11-27T04:51:33.712Z,2.26
2022-11-27T04:54:06.805Z,2.25
2022-11-27T04:56:53.726Z,2.22
2022-11-27T04:59:33.786Z,2.20
2022-11-27T05:02:27.774Z,2.20
2022-11-27T05:05:14.713Z,2.19
2022-11-27T05:07:47.820Z,2.20
2022-11-27T05:10:34.715Z,2.20
2022-11-27T05:13:14.731Z,2.20
2022-11-27T05:16:08.742Z,2.18
2022-11-27T05:19:02.717Z,2.17
2022-11-27T05:21:57.731Z,2.13
2022-11-27T05:24:44.716Z,2.11
2022-11-27T05:27:17.821Z,2.10
2022-11-27T05:30:04.731Z,2.05
2022-11-27T05:32:44.759Z,2.00
2022-11-27T05:35:38.721Z,2.01
2022-11-27T05:38:32.863Z,1.99
2022-11-27T05:41:26.735Z,1.97
2022-11-27T05:44:13.731Z,1.93
2022-11-27T05:46:47.869Z,1.92
2022-11-27T05:49:34.746Z,1.91
2022-11-27T05:52:14.752Z,1.91
2022-11-27T05:55:08.756Z,1.92
2022-11-27T05:57:55.734Z,1.91
2022-11-27T06:00:28.849Z,1.89
2022-11-27T06:03:15.747Z,1.83
2022-11-27T06:05:48.816Z,1.85
2022-11-27T06:08:35.753Z,1.84
2022-11-27T06:11:13.889Z,1.84
2022-11-27T06:14:00.744Z,1.82
2022-11-27T06:16:40.802Z,1.83
2022-11-27T06:19:27.756Z,1.82
2022-11-27T06:22:00.814Z,1.83
2022-11-27T06:24:47.760Z,1.85
2022-11-27T06:27:27.756Z,1.83
2022-11-27T06:30:22.754Z,1.81
2022-11-27T06:33:09.765Z,1.82
2022-11-27T06:35:42.817Z,1.82
2022-11-27T06:38:30.777Z,1.76
2022-11-27T06:41:09.868Z,1.73
2022-11-27T06:43:56.775Z,1.73
2022-11-27T06:46:36.772Z,1.74
2022-11-27T06:49:30.751Z,1.77
2022-11-27T06:52:17.804Z,1.76
2022-11-27T06:54:50.821Z,1.77
2022-11-27T06:57:37.768Z,1.81
2022-11-27T07:00:14.834Z,1.83
2022-11-27T07:03:02.753Z,1.93
2022-11-27T07:05:42.764Z,1.89
2022-11-27T07:08:29.765Z,2.04
2022-11-27T07:11:22.763Z,2.05
2022-11-27T07:14:18.771Z,2.06
2022-11-27T07:17:05.779Z,2.07
2022-11-27T07:19:38.855Z,2.11
2022-11-27T07:22:25.754Z,2.12
2022-11-27T07:24:58.851Z,2.08
2022-11-27T07:27:45.753Z,2.04
2022-11-27T07:30:18.938Z,2.07
2022-11-27T07:33:05.796Z,2.08
2022-11-27T07:35:38.844Z,2.09
2022-11-27T07:38:25.773Z,2.14
2022-11-27T07:41:05.769Z,2.19
2022-11-27T07:43:52.793Z,2.21
2022-11-27T07:46:30.198Z,2.25
2022-11-27T07:49:16.803Z,2.27
2022-11-27T07:51:49.852Z,2.31
2022-11-27T07:54:36.793Z,2.30
2022-11-27T07:57:09.866Z,2.32
2022-11-27T08:00:03.784Z,2.33
2022-11-27T08:02:57.796Z,2.33
2022-11-27T08:05:44.800Z,2.33
2022-11-27T08:08:17.847Z,2.32
2022-11-27T08:11:04.794Z,2.30
2022-11-27T08:13:37.857Z,2.33
2022-11-27T08:16:24.866Z,2.30
2022-11-27T08:18:57.881Z,2.34
2022-11-27T08:21:44.805Z,2.38
2022-11-27T08:24:17.876Z,2.39
2022-11-27T08:27:04.784Z,2.34
2022-11-27T08:29:44.819Z,2.30
2022-11-27T08:32:38.799Z,2.33
2022-11-27T08:35:25.793Z,2.35
2022-11-27T08:37:58.885Z,2.37
2022-11-27T08:40:45.798Z,2.42
2022-11-27T08:43:18.872Z,2.42
2022-11-27T08:46:06.876Z,2.48
2022-11-27T08:48:39.968Z,2.51
2022-11-27T08:51:26.829Z,2.56
2022-11-27T08:54:06.831Z,2.61
2022-11-27T08:57:00.808Z,2.69
2022-11-27T08:59:54.793Z,2.71
2022-11-27T09:02:43.812Z,2.78
2022-11-27T09:05:16.919Z,2.86
2022-11-27T09:08:03.805Z,2.92
2022-11-27T09:10:43.821Z,2.93
2022-11-27T09:13:30.847Z,2.94
2022-11-27T09:16:11.854Z,2.97
2022-11-27T09:19:06.803Z,3.01
2022-11-27T09:21:55.825Z,3.04
2022-11-27T09:24:28.889Z,3.09
2022-11-27T09:27:17.845Z,3.14
2022-11-27T09:30:00.809Z,3.19
2022-11-27T09:32:54.804Z,3.25
2022-11-27T09:35:43.826Z,3.28
2022-11-27T09:38:16.902Z,3.29
2022-11-27T09:41:09.825Z,3.22
2022-11-27T09:43:49.965Z,3.24
2022-11-27T09:46:42.817Z,3.18
2022-11-27T09:49:30.828Z,3.20
2022-11-27T09:52:29.859Z,3.19
2022-11-27T09:55:38.828Z,3.23
2022-11-27T09:58:41.816Z,3.23
2022-11-27T10:01:47.677Z,3.24
2022-11-27T10:04:58.068Z,3.22
2022-11-27T10:07:40.025Z,3.22
2022-11-27T10:10:32.835Z,3.22
2022-11-27T10:13:28.904Z,3.23
2022-11-27T10:16:17.893Z,3.25
2022-11-27T10:18:56.097Z,3.27
2022-11-27T10:22:01.825Z,3.26
2022-11-27T10:25:05.968Z,3.27
2022-11-27T10:28:14.845Z,3.27
2022-11-27T10:31:08.866Z,3.29
2022-11-27T10:34:08.848Z,3.33
2022-11-27T10:36:59.833Z,3.37
2022-11-27T10:39:58.848Z,3.38
2022-11-27T10:43:10.845Z,3.34
2022-11-27T10:45:51.129Z,3.33
2022-11-27T10:48:38.841Z,3.34
2022-11-27T10:51:35.873Z,3.34
2022-11-27T10:54:43.218Z,3.34
2022-11-27T10:57:49.849Z,3.35
2022-11-27T11:00:43.910Z,3.40
2022-11-27T11:03:30.844Z,3.41
2022-11-27T11:06:20.753Z,3.44
2022-11-27T11:09:20.849Z,3.44
2022-11-27T11:11:53.973Z,3.42
2022-11-27T11:14:40.975Z,3.42
2022-11-27T11:17:29.896Z,3.41
2022-11-27T11:20:36.856Z,3.37
2022-11-27T11:23:28.876Z,3.34
2022-11-27T11:26:04.997Z,3.30
2022-11-27T11:28:56.844Z,3.28
2022-11-27T11:31:48.029Z,3.25
2022-11-27T11:34:39.027Z,3.23
2022-11-27T11:37:23.030Z,3.21
2022-11-27T11:40:16.308Z,3.16
2022-11-27T11:43:06.847Z,3.17
2022-11-27T11:45:54.963Z,3.18
2022-11-27T11:48:39.861Z,3.20
2022-11-27T11:51:42.868Z,3.18
2022-11-27T11:54:55.859Z,3.18
2022-11-27T11:58:00.908Z,3.16
2022-11-27T12:01:25.310Z,3.17
2022-11-27T12:04:35.914Z,3.12
2022-11-27T12:07:18.957Z,3.10
2022-11-27T12:10:18.874Z,3.08
2022-11-27T12:13:39.865Z,3.10
2022-11-27T12:17:22.884Z,3.11
2022-11-27T12:20:19.890Z,3.08
2022-11-27T12:23:38.892Z,3.08
2022-11-27T12:26:28.892Z,3.10
2022-11-27T12:29:27.125Z,3.09
2022-11-27T12:32:34.902Z,3.04
2022-11-27T12:35:23.905Z,3.07
2022-11-27T12:38:39.899Z,3.09
2022-11-27T12:41:56.929Z,3.06
2022-11-27T12:44:55.893Z,3.04
2022-11-27T12:47:56.904Z,3.05
2022-11-27T12:50:55.897Z,3.05
2022-11-27T12:53:48.878Z,3.06
2022-11-27T12:56:28.892Z,3.05
2022-11-27T12:59:26.887Z,3.05
2022-11-27T13:02:24.027Z,3.04
2022-11-27T13:05:14.904Z,3.02
2022-11-27T13:08:00.073Z,3.02
2022-11-27T13:11:12.903Z,3.00
2022-11-27T13:14:12.884Z,3.00
2022-11-27T13:17:02.989Z,3.00
2022-11-27T13:20:08.074Z,2.99
2022-11-27T13:22:57.062Z,3.00
2022-11-27T13:25:38.891Z,3.00
2022-11-27T13:28:57.913Z,2.96
2022-11-27T13:31:45.988Z,2.92
2022-11-27T13:34:29.984Z,2.90
2022-11-27T13:37:32.908Z,2.86
2022-11-27T13:40:38.927Z,2.81
2022-11-27T13:43:39.899Z,2.81
2022-11-27T13:46:31.892Z,2.78
2022-11-27T13:49:07.984Z,2.75
2022-11-27T13:51:54.924Z,2.72
2022-11-27T13:54:29.315Z,2.70
2022-11-27T13:57:23.902Z,2.70
2022-11-27T14:00:15.980Z,2.70
2022-11-27T14:03:02.920Z,2.68
2022-11-27T14:05:58.909Z,2.68
2022-11-27T14:08:52.951Z,2.66
2022-11-27T14:11:53.917Z,2.66
2022-11-27T14:14:30.117Z,2.62
2022-11-27T14:17:47.922Z,2.61
2022-11-27T14:20:26.023Z,2.60
2022-11-27T14:23:12.186Z,2.58
2022-11-27T14:25:52.921Z,2.58
2022-11-27T14:28:28.078Z,2.55
2022-11-27T14:31:42.028Z,2.54
2022-11-27T14:34:51.049Z,2.49
2022-11-27T14:37:39.098Z,2.48
2022-11-27T14:40:27.045Z,2.51
2022-11-27T14:43:27.051Z,2.54
2022-11-27T14:46:08.278Z,2.49
2022-11-27T14:48:57.980Z,2.49
2022-11-27T14:51:41.912Z,2.50
2022-11-27T14:54:50.953Z,2.49
2022-11-27T14:57:44.937Z,2.48
2022-11-27T15:00:39.985Z,2.48
2022-11-27T15:03:26.984Z,2.44
2022-11-27T15:06:05.096Z,2.43
2022-11-27T15:09:15.849Z,2.42
2022-11-27T15:12:00.764Z,2.42
2022-11-27T15:14:52.958Z,2.42
2022-11-27T15:17:33.047Z,2.39
2022-11-27T15:20:22.952Z,2.34
2022-11-27T15:23:11.979Z,2.32
2022-11-27T15:26:22.478Z,2.29
2022-11-27T15:29:39.016Z,2.29
2022-11-27T15:32:34.072Z,2.30
2022-11-27T15:35:27.985Z,2.30
2022-11-27T15:38:05.598Z,2.32
2022-11-27T15:40:51.991Z,2.30
2022-11-27T15:43:31.980Z,2.29
2022-11-27T15:46:33.983Z,2.28
2022-11-27T15:49:21.979Z,2.27
2022-11-27T15:51:55.071Z,2.26
2022-11-27T15:54:44.170Z,2.25
2022-11-27T15:57:18.084Z,2.24
2022-11-27T16:00:13.982Z,2.25
2022-11-27T16:03:07.991Z,2.22
2022-11-27T16:05:55.005Z,2.22
2022-11-27T16:08:28.082Z,2.22
2022-11-27T16:11:21.015Z,2.22
2022-11-27T16:13:54.117Z,2.19
2022-11-27T16:16:42.057Z,2.21
2022-11-27T16:19:17.105Z,2.20
2022-11-27T16:22:05.981Z,2.20
2022-11-27T16:24:39.995Z,2.19
2022-11-27T16:27:27.000Z,2.19
2022-11-27T16:30:07.024Z,2.19
2022-11-27T16:33:01.036Z,2.20
2022-11-27T16:35:47.982Z,2.20
2022-11-27T16:38:28.078Z,2.20
2022-11-27T16:41:23.985Z,2.20
2022-11-27T16:44:17.021Z,2.20
2022-11-27T16:46:50.076Z,2.20
2022-11-27T16:49:37.013Z,2.20
2022-11-27T16:52:11.216Z,2.20
2022-11-27T16:54:57.988Z,2.20
2022-11-27T16:57:31.224Z,2.20
2022-11-27T17:00:25.031Z,2.19
2022-11-27T17:03:19.016Z,2.20
2022-11-27T17:06:13.016Z,2.17
2022-11-27T17:09:01.023Z,2.18
2022-11-27T17:11:37.167Z,2.16
2022-11-27T17:14:25.008Z,2.15
2022-11-27T17:16:58.163Z,2.15
2022-11-27T17:19:45.014Z,2.15
2022-11-27T17:22:27.764Z,2.15
2022-11-27T17:25:21.011Z,2.14
2022-11-27T17:28:15.063Z,2.16
2022-11-27T17:31:09.106Z,2.20
2022-11-27T17:33:55.986Z,2.22
2022-11-27T17:36:36.520Z,2.22
2022-11-27T17:39:23.985Z,2.21
2022-11-27T17:41:57.106Z,2.20
2022-11-27T17:44:45.012Z,2.21
2022-11-27T17:47:18.078Z,2.20
2022-11-27T17:50:07.749Z,2.20
2022-11-27T17:52:41.094Z,2.19
2022-11-27T17:55:28.016Z,2.20
2022-11-27T17:58:01.136Z,2.21
2022-11-27T18:00:48.054Z,2.22
2022-11-27T18:03:29.906Z,2.22
2022-11-27T18:06:24.010Z,2.22
2022-11-27T18:09:11.051Z,2.27
2022-11-27T18:11:53.990Z,2.30
2022-11-27T18:14:41.065Z,2.29
2022-11-27T18:17:23.999Z,2.28
2022-11-27T18:20:17.818Z,2.26
2022-11-27T18:22:58.021Z,2.22
2022-11-27T18:25:54.014Z,2.21
2022-11-27T18:28:41.066Z,2.17
2022-11-27T18:31:23.204Z,2.14
2022-11-27T18:34:10.090Z,2.14
2022-11-27T18:36:50.024Z,2.15
2022-11-27T18:39:44.343Z,2.13
2022-11-27T18:42:40.013Z,2.15
2022-11-27T18:45:33.253Z,2.18
2022-11-27T18:48:12.257Z,2.18
2022-11-27T18:51:01.217Z,2.17
2022-11-27T18:53:34.168Z,2.16
2022-11-27T18:56:27.066Z,2.14
2022-11-27T18:59:01.124Z,2.13
2022-11-27T19:01:48.226Z,2.13
2022-11-27T19:04:21.144Z,2.14
2022-11-27T19:07:08.080Z,2.14
2022-11-27T19:09:41.377Z,2.14
2022-11-27T19:12:28.091Z,2.15
2022-11-27T19:15:01.137Z,2.16
2022-11-27T19:17:48.019Z,2.14
2022-11-27T19:20:21.146Z,2.13
2022-11-27T19:23:09.157Z,2.15
2022-11-27T19:25:46.419Z,2.16
2022-11-27T19:28:33.084Z,2.18
2022-11-27T19:31:17.071Z,2.18
2022-11-27T19:34:13.069Z,2.15
2022-11-27T19:37:00.124Z,2.15
2022-11-27T19:39:33.363Z,2.14
2022-11-27T19:42:20.086Z,2.13
2022-11-27T19:44:55.880Z,2.12
2022-11-27T19:47:43.064Z,2.10
2022-11-27T19:50:16.168Z,2.07
2022-11-27T19:53:06.177Z,2.02
2022-11-27T19:55:47.046Z,2.00
2022-11-27T19:58:34.079Z,1.98
2022-11-27T20:01:16.229Z,1.98
2022-11-27T20:04:03.142Z,1.98
2022-11-27T20:06:43.113Z,1.97
2022-11-27T20:09:33.076Z,1.95
2022-11-27T20:12:13.104Z,1.94
2022-11-27T20:15:10.099Z,1.93
2022-11-27T20:17:57.098Z,1.92
2022-11-27T20:20:37.105Z,1.91
2022-11-27T20:23:24.121Z,1.91
2022-11-27T20:25:57.167Z,1.87
2022-11-27T20:28:48.125Z,1.86
2022-11-27T20:31:32.169Z,1.88
2022-11-27T20:34:33.111Z,1.88
2022-11-27T20:37:30.084Z,1.87
2022-11-27T20:40:17.104Z,1.83
2022-11-27T20:42:52.433Z,1.81
2022-11-27T20:45:39.174Z,1.79
2022-11-27T20:48:13.208Z,1.79
2022-11-27T20:51:02.084Z,1.80
2022-11-27T20:53:42.089Z,1.81
2022-11-27T20:56:40.134Z,1.77
2022-11-27T20:59:36.090Z,1.77
2022-11-27T21:02:30.142Z,1.79
2022-11-27T21:05:18.085Z,1.80
2022-11-27T21:07:58.148Z,1.81
2022-11-27T21:10:54.129Z,1.83
2022-11-27T21:13:50.088Z,1.83
2022-11-27T21:16:46.178Z,1.82
2022-11-27T21:19:42.287Z,1.83
2022-11-27T21:22:36.130Z,1.83
2022-11-27T21:25:25.623Z,1.85
2022-11-27T21:28:00.215Z,1.85
2022-11-27T21:30:48.134Z,1.83
2022-11-27T21:33:22.186Z,1.83
2022-11-27T21:36:10.138Z,1.84
2022-11-27T21:38:43.198Z,1.84
2022-11-27T21:41:32.086Z,1.82
2022-11-27T21:44:08.172Z,1.82
2022-11-27T21:46:56.088Z,1.79
2022-11-27T21:49:36.131Z,1.75
2022-11-27T21:52:31.136Z,1.77
2022-11-27T21:55:19.129Z,1.79
2022-11-27T21:57:52.196Z,1.79
2022-11-27T22:00:46.186Z,1.79
2022-11-27T22:03:42.762Z,1.79
2022-11-27T22:06:34.127Z,1.82
2022-11-27T22:09:11.830Z,1.81
2022-11-27T22:12:01.115Z,1.79
2022-11-27T22:14:34.211Z,1.78
2022-11-27T22:17:14.224Z,1.77
2022-11-27T22:19:54.130Z,1.80
2022-11-27T22:22:34.128Z,1.82
2022-11-27T22:25:21.143Z,1.84
2022-11-27T22:27:54.212Z,1.85
2022-11-27T22:30:41.180Z,1.83
2022-11-27T22:33:14.184Z,1.81
2022-11-27T22:36:01.131Z,1.80
2022-11-27T22:38:41.132Z,1.79
2022-11-27T22:41:38.137Z,1.78
2022-11-27T22:44:33.140Z,1.76
2022-11-27T22:47:20.126Z,1.75
2022-11-27T22:49:53.190Z,1.77
2022-11-27T22:52:40.144Z,1.78
2022-11-27T22:55:20.145Z,1.78
2022-11-27T22:58:14.134Z,1.79
2022-11-27T23:01:11.120Z,1.80
2022-11-27T23:03:59.228Z,1.80
2022-11-27T23:06:32.189Z,1.77
2022-11-27T23:09:19.137Z,1.74
2022-11-27T23:11:52.816Z,1.73
2022-11-27T23:14:39.356Z,1.71
2022-11-27T23:17:12.204Z,1.68
2022-11-27T23:19:59.141Z,1.67
2022-11-27T23:22:32.233Z,1.69
2022-11-27T23:25:19.120Z,1.65
2022-11-27T23:27:52.205Z,1.66
2022-11-27T23:30:43.124Z,1.64
2022-11-27T23:33:16.196Z,1.64
2022-11-27T23:36:08.132Z,1.64
2022-11-27T23:38:48.139Z,1.66
2022-11-27T23:41:38.567Z,1.70
2022-11-27T23:44:12.276Z,1.71
2022-11-27T23:46:59.424Z,1.72
2022-11-27T23:49:39.162Z,1.75
2022-11-27T23:52:33.154Z,1.77
2022-11-27T23:55:27.134Z,1.76
2022-11-27T23:58:21.130Z,1.76
